^^
Station Historical Data
Daily Summary for February 14, 2018 Units:  English    Metric   Both
« Previous Day
Next Day »
Daily Weekly Monthly Yearly Custom
  High: Low: Average:
Temperature: TemperatureF °F 5.8 °F 14.6 °F
Dew Point: DewpointF °F 2.8 °F 11.7 °F
Humidity: Humidity % 82 % 88 %
Wind Speed: WindSpeedMPH mph 0.0 mph 0.3 mph
Wind Gust: WindSpeedGustMPH mph - -
Wind:- - West
Pressure: PressureIn in 30.01 in -
Precipitation: 0.00 in    
Historical Graphs
 
 
Tabular Data for February 14, 2018
Time Temperature Dew Point Pressure Wind Wind Speed Wind Gust Humidity Rainfall Rate (Hourly) solar Conditions
TemperatureF °F DewpointF °F PressureIn in Calm     Humidity % HourlyPrecipIn in SoftwareType W/m2 Conditions
00:04 9.3 °F 6.4 °F 30.36 in Calm     88 % 0.00 in WeatherDisplay:10.37 W/m2 BKN
00:09 9.1 °F 6.3 °F 30.35 in Calm     88 % 0.00 in WeatherDisplay:10.37 W/m2 BKN
00:14 8.9 °F 5.9 °F 30.35 in Calm     87 % 0.00 in WeatherDisplay:10.37 W/m2 SCT
00:19 8.8 °F 5.7 °F 30.34 in Calm     87 % 0.00 in WeatherDisplay:10.37 W/m2 SCT
00:24 8.6 °F 5.5 °F 30.34 in Calm     87 % 0.00 in WeatherDisplay:10.37 W/m2 SCT
00:29 8.4 °F 5.3 °F 30.34 in Calm     87 % 0.00 in WeatherDisplay:10.37 W/m2 SCT
00:34 8.2 °F 5.1 °F 30.34 in Calm     87 % 0.00 in WeatherDisplay:10.37 W/m2 SCT
00:39 8.1 °F 5.0 °F 30.34 in Calm     87 % 0.00 in WeatherDisplay:10.37 W/m2 SCT
00:44 8.0 °F 4.9 °F 30.33 in Calm     87 % 0.00 in WeatherDisplay:10.37 W/m2 SCT
00:49 7.9 °F 4.8 °F 30.33 in Calm     87 % 0.00 in WeatherDisplay:10.37 W/m2 SCT
00:54 7.7 °F 4.6 °F 30.32 in Calm     87 % 0.00 in WeatherDisplay:10.37 W/m2 SCT
00:59 7.6 °F 4.5 °F 30.32 in Calm     87 % 0.00 in WeatherDisplay:10.37 W/m2 SCT
01:04 7.4 °F 4.3 °F 30.31 in Calm     87 % 0.00 in WeatherDisplay:10.37 W/m2 SCT
01:09 7.3 °F 4.2 °F 30.31 in Calm     87 % 0.00 in WeatherDisplay:10.37 W/m2 SCT
01:14 7.1 °F 4.1 °F 30.31 in Calm     87 % 0.00 in WeatherDisplay:10.37 W/m2 BKN
01:19 6.9 °F 3.9 °F 30.30 in Calm     87 % 0.00 in WeatherDisplay:10.37 W/m2 BKN
01:24 6.7 °F 3.4 °F 30.30 in Calm     86 % 0.00 in WeatherDisplay:10.37 W/m2 BKN
01:29 6.6 °F 3.6 °F 30.30 in Calm     87 % 0.00 in WeatherDisplay:10.37 W/m2 BKN
01:34 6.5 °F 3.5 °F 30.29 in Calm     87 % 0.00 in WeatherDisplay:10.37 W/m2 BKN
01:39 6.4 °F 3.4 °F 30.28 in Calm     87 % 0.00 in WeatherDisplay:10.37 W/m2 BKN
01:44 6.4 °F 3.4 °F 30.28 in Calm     87 % 0.00 in WeatherDisplay:10.37 W/m2 BKN
01:49 6.3 °F 3.3 °F 30.28 in Calm     87 % 0.00 in WeatherDisplay:10.37 W/m2 BKN
01:54 6.2 °F 3.2 °F 30.27 in Calm     87 % 0.00 in WeatherDisplay:10.37 W/m2 BKN
02:04 6.0 °F 3.0 °F 30.27 in Calm     87 % 0.00 in WeatherDisplay:10.37 W/m2 BKN
02:09 5.9 °F 2.9 °F 30.26 in Calm     87 % 0.00 in WeatherDisplay:10.37 W/m2 BKN
02:14 5.9 °F 2.8 °F 30.26 in Calm     87 % 0.00 in WeatherDisplay:10.37 W/m2 BKN
02:19 5.8 °F 2.8 °F 30.25 in Calm     87 % 0.00 in WeatherDisplay:10.37 W/m2 BKN
02:24 5.8 °F 2.8 °F 30.25 in Calm     87 % 0.00 in WeatherDisplay:10.37 W/m2 BKN
02:29 5.8 °F 2.8 °F 30.25 in Calm     87 % 0.00 in WeatherDisplay:10.37 W/m2 BKN
02:34 5.8 °F 3.0 °F 30.26 in Calm     88 % 0.00 in WeatherDisplay:10.37 W/m2 BKN
02:39 5.9 °F 3.1 °F 30.26 in Calm     88 % 0.00 in WeatherDisplay:10.37 W/m2 BKN
02:44 5.9 °F 3.1 °F 30.25 in Calm     88 % 0.00 in WeatherDisplay:10.37 W/m2 BKN
02:49 6.0 °F 3.2 °F 30.25 in Calm   1.0 mph 88 % 0.00 in WeatherDisplay:10.37 W/m2 BKN
02:54 6.2 °F 3.4 °F 30.25 in Calm   1.0 mph 88 % 0.00 in WeatherDisplay:10.37 W/m2 BKN
02:59 6.5 °F 3.9 °F 30.25 in Calm   1.0 mph 89 % 0.00 in WeatherDisplay:10.37 W/m2 BKN
03:04 6.7 °F 4.1 °F 30.25 in Calm     89 % 0.00 in WeatherDisplay:10.37 W/m2 BKN
03:09 6.8 °F 4.2 °F 30.24 in Calm   1.0 mph 89 % 0.00 in WeatherDisplay:10.37 W/m2 BKN
03:14 7.1 °F 4.5 °F 30.24 in Calm     89 % 0.00 in WeatherDisplay:10.37 W/m2 BKN
03:19 7.2 °F 4.6 °F 30.23 in Calm     89 % 0.00 in WeatherDisplay:10.37 W/m2 BKN
03:24 7.4 °F 4.8 °F 30.22 in Calm     89 % 0.00 in WeatherDisplay:10.37 W/m2 BKN
03:30 7.5 °F 4.9 °F 30.22 in Calm     89 % 0.00 in WeatherDisplay:10.37 W/m2 BKN
03:39 7.7 °F 5.1 °F 30.21 in Calm     89 % 0.00 in WeatherDisplay:10.37 W/m2 BKN
03:44 7.8 °F 5.2 °F 30.21 in Calm     89 % 0.00 in WeatherDisplay:10.37 W/m2 BKN
03:49 7.9 °F 5.3 °F 30.20 in Calm   1.0 mph 89 % 0.00 in WeatherDisplay:10.37 W/m2 BKN
03:54 7.9 °F 5.3 °F 30.20 in Calm     89 % 0.00 in WeatherDisplay:10.37 W/m2 BKN
03:59 8.0 °F 5.4 °F 30.20 in Calm     89 % 0.00 in WeatherDisplay:10.37 W/m2 BKN
04:04 8.1 °F 5.5 °F 30.19 in Calm     89 % 0.00 in WeatherDisplay:10.37 W/m2 BKN
04:10 8.1 °F 5.5 °F 30.19 in Calm     89 % 0.00 in WeatherDisplay:10.37 W/m2 BKN
04:19 8.2 °F 5.6 °F 30.18 in Calm     89 % 0.00 in WeatherDisplay:10.37 W/m2 BKN
04:24 8.3 °F 5.7 °F 30.18 in Calm     89 % 0.00 in WeatherDisplay:10.37 W/m2 BKN
04:29 8.3 °F 5.8 °F 30.18 in Calm     89 % 0.00 in WeatherDisplay:10.37 W/m2 BKN
04:34 8.4 °F 5.8 °F 30.18 in Calm     89 % 0.00 in WeatherDisplay:10.37 W/m2 BKN
04:39 8.4 °F 5.8 °F 30.18 in Calm     89 % 0.00 in WeatherDisplay:10.37 W/m2 BKN
04:44 8.3 °F 5.8 °F 30.18 in Calm     89 % 0.00 in WeatherDisplay:10.37 W/m2 BKN
04:49 8.3 °F 5.7 °F 30.18 in Calm     89 % 0.00 in WeatherDisplay:10.37 W/m2 BKN
04:54 8.2 °F 5.6 °F 30.18 in Calm     89 % 0.00 in WeatherDisplay:10.37 W/m2 BKN
04:59 8.2 °F 5.6 °F 30.18 in Calm     89 % 0.00 in WeatherDisplay:10.37 W/m2 BKN
05:04 8.2 °F 5.4 °F 30.18 in Calm     88 % 0.00 in WeatherDisplay:10.37 W/m2 BKN
05:09 8.1 °F 5.3 °F 30.18 in Calm     88 % 0.00 in WeatherDisplay:10.37 W/m2 BKN
05:14 8.1 °F 5.5 °F 30.18 in Calm     89 % 0.00 in WeatherDisplay:10.37 W/m2 OVC
05:19 8.2 °F 5.6 °F 30.17 in Calm     89 % 0.00 in WeatherDisplay:10.37 W/m2 OVC
05:24 8.2 °F 5.6 °F 30.17 in Calm     89 % 0.00 in WeatherDisplay:10.37 W/m2 OVC
05:29 8.4 °F 5.8 °F 30.17 in Calm     89 % 0.00 in WeatherDisplay:10.37 W/m2 OVC
05:34 8.5 °F 5.9 °F 30.17 in Calm     89 % 0.00 in WeatherDisplay:10.37 W/m2 OVC
05:39 8.6 °F 6.0 °F 30.16 in Calm     89 % 0.00 in WeatherDisplay:10.37 W/m2 OVC
05:44 8.8 °F 6.2 °F 30.16 in Calm     89 % 0.00 in WeatherDisplay:10.37 W/m2 OVC
05:49 8.9 °F 6.3 °F 30.15 in Calm     89 % 0.00 in WeatherDisplay:10.37 W/m2 OVC
05:54 9.1 °F 6.5 °F 30.15 in Calm     89 % 0.00 in WeatherDisplay:10.37 W/m2 OVC
05:59 9.2 °F 6.9 °F 30.15 in Calm     90 % 0.00 in WeatherDisplay:10.37 W/m2 OVC
06:04 9.3 °F 7.0 °F 30.15 in Calm     90 % 0.00 in WeatherDisplay:10.37 W/m2 OVC
06:09 9.5 °F 7.2 °F 30.15 in Calm     90 % 0.00 in WeatherDisplay:10.37 W/m2 OVC
06:14 9.6 °F 7.2 °F 30.15 in Calm     90 % 0.00 in WeatherDisplay:10.37 W/m2 OVC
06:19 9.7 °F 7.4 °F 30.14 in Calm     90 % 0.00 in WeatherDisplay:10.37 W/m2 OVC
06:24 9.7 °F 7.4 °F 30.14 in Calm     90 % 0.00 in WeatherDisplay:10.37 W/m2 OVC
06:29 9.8 °F 7.5 °F 30.15 in Calm     90 % 0.00 in WeatherDisplay:10.37 W/m2 OVC
06:34 9.9 °F 7.6 °F 30.15 in Calm     90 % 0.00 in WeatherDisplay:10.37 W/m2 OVC
06:39 10.1 °F 7.8 °F 30.14 in Calm     90 % 0.00 in WeatherDisplay:10.37 W/m2 OVC
06:44 10.2 °F 7.9 °F 30.14 in Calm     90 % 0.00 in WeatherDisplay:10.37 W/m2 OVC
06:49 10.3 °F 8.0 °F 30.14 in Calm     90 % 0.00 in WeatherDisplay:10.37 W/m2 OVC
06:54 10.5 °F 8.1 °F 30.13 in Calm   1.0 mph 90 % 0.00 in WeatherDisplay:10.37 W/m2 OVC
06:59 10.7 °F 8.4 °F 30.14 in Calm   2.0 mph 90 % 0.00 in WeatherDisplay:10.37 W/m2 OVC
07:04 11.0 °F 8.9 °F 30.14 in Calm     91 % 0.00 in WeatherDisplay:10.37 W/m2 OVC
07:09 11.3 °F 9.2 °F 30.13 in Calm   2.0 mph 91 % 0.00 in WeatherDisplay:10.37 W/m2 OVC
07:14 11.5 °F 9.4 °F 30.13 in Calm     91 % 0.00 in WeatherDisplay:10.37 W/m2 BKN
07:19 11.8 °F 9.7 °F 30.13 in Calm   1.0 mph 91 % 0.00 in WeatherDisplay:10.37 W/m2 BKN
07:24 12.1 °F 10.0 °F 30.13 in Calm   2.0 mph 91 % 0.00 in WeatherDisplay:10.37 W/m2 BKN
07:29 12.4 °F 10.3 °F 30.12 in Calm     91 % 0.00 in WeatherDisplay:10.37 W/m2 BKN
07:34 12.7 °F 10.8 °F 30.12 in Calm     92 % 0.00 in WeatherDisplay:10.37 W/m2 BKN
07:39 13.0 °F 11.2 °F 30.12 in Calm     92 % 0.00 in WeatherDisplay:10.37 W/m2 BKN
07:44 13.4 °F 11.5 °F 30.12 in Calm   1.0 mph 92 % 0.00 in WeatherDisplay:10.37 W/m2 BKN
07:49 13.7 °F 11.8 °F 30.12 in Calm   1.0 mph 92 % 0.00 in WeatherDisplay:10.37 W/m2 BKN
07:54 14.0 °F 12.1 °F 30.12 in Calm     92 % 0.00 in WeatherDisplay:10.37 W/m2 BKN
08:04 14.7 °F 12.8 °F 30.12 in Calm     92 % 0.00 in WeatherDisplay:10.37 W/m2 BKN
08:09 14.9 °F 13.0 °F 30.11 in Calm   3.0 mph 92 % 0.00 in WeatherDisplay:10.37 W/m2 BKN
08:14 15.2 °F 13.3 °F 30.11 in Calm   3.0 mph 92 % 0.00 in WeatherDisplay:10.37 W/m2 BKN
08:19 15.6 °F 13.7 °F 30.11 in Calm     92 % 0.00 in WeatherDisplay:10.37 W/m2 BKN
08:24 16.0 °F 14.1 °F 30.11 in Calm   1.0 mph 92 % 0.00 in WeatherDisplay:10.37 W/m2 BKN
08:29 16.2 °F 14.1 °F 30.11 in Calm   1.0 mph 91 % 0.00 in WeatherDisplay:10.37 W/m2 BKN
08:34 16.6 °F 14.7 °F 30.11 in Calm   2.0 mph 92 % 0.00 in WeatherDisplay:10.37 W/m2 BKN
08:39 17.0 °F 15.1 °F 30.11 in Calm   2.0 mph 92 % 0.00 in WeatherDisplay:10.37 W/m2 BKN
08:44 17.4 °F 15.4 °F 30.11 in Calm     92 % 0.00 in WeatherDisplay:10.37 W/m2 BKN
08:49 17.8 °F 15.6 °F 30.11 in Calm   1.0 mph 91 % 0.00 in WeatherDisplay:10.37 W/m2 BKN
08:54 18.1 °F 15.9 °F 30.11 in Calm   2.0 mph 91 % 0.00 in WeatherDisplay:10.37 W/m2 BKN
08:59 18.5 °F 16.4 °F 30.11 in Calm   2.0 mph 91 % 0.00 in WeatherDisplay:10.37 W/m2 BKN
09:04 19.1 °F 16.9 °F 30.11 in Calm   2.0 mph 91 % 0.00 in WeatherDisplay:10.37 W/m2 BKN
09:09 19.7 °F 17.5 °F 30.10 in Calm   2.0 mph 91 % 0.00 in WeatherDisplay:10.37 W/m2 BKN
09:14 20.5 °F 18.3 °F 30.10 in WNW 2.0 mph 6.0 mph 91 % 0.00 in WeatherDisplay:10.37 W/m2 BKN
09:19 21.5 °F 19.3 °F 30.10 in Calm   4.0 mph 91 % 0.00 in WeatherDisplay:10.37 W/m2 BKN
09:24 22.3 °F 20.1 °F 30.09 in West 1.0 mph 4.0 mph 91 % 0.00 in WeatherDisplay:10.37 W/m2 BKN
09:29 23.3 °F 21.0 °F 30.09 in Calm   4.0 mph 91 % 0.00 in WeatherDisplay:10.37 W/m2 BKN
09:34 24.1 °F 21.6 °F 30.08 in WSW 1.0 mph 3.0 mph 90 % 0.00 in WeatherDisplay:10.37 W/m2 BKN
09:39 24.9 °F 22.4 °F 30.08 in West 1.0 mph 3.0 mph 90 % 0.00 in WeatherDisplay:10.37 W/m2 BKN
09:44 25.5 °F 22.7 °F 30.08 in Calm   5.0 mph 89 % 0.00 in WeatherDisplay:10.37 W/m2 BKN
09:49 25.9 °F 23.1 °F 30.08 in Calm   1.0 mph 89 % 0.00 in WeatherDisplay:10.37 W/m2 BKN
09:54 26.4 °F 23.4 °F 30.08 in West 1.0 mph 7.0 mph 88 % 0.00 in WeatherDisplay:10.37 W/m2 BKN
09:59 27.0 °F 23.9 °F 30.08 in Calm   6.0 mph 88 % 0.00 in WeatherDisplay:10.37 W/m2 BKN
10:04 27.4 °F 23.7 °F 30.08 in WSW 1.0 mph 8.0 mph 86 % 0.00 in WeatherDisplay:10.37 W/m2 BKN
10:09 27.7 °F 23.8 °F 30.07 in West 1.0 mph 5.0 mph 85 % 0.00 in WeatherDisplay:10.37 W/m2 BKN
10:14 28.0 °F 24.1 °F 30.07 in West 2.0 mph 6.0 mph 85 % 0.00 in WeatherDisplay:10.37 W/m2 OVC
10:19 28.4 °F 24.1 °F 30.07 in West 2.0 mph 7.0 mph 84 % 0.00 in WeatherDisplay:10.37 W/m2 OVC
10:24 28.6 °F 24.4 °F 30.07 in WNW 2.0 mph 7.0 mph 84 % 0.00 in WeatherDisplay:10.37 W/m2 OVC
10:29 28.8 °F 24.3 °F 30.07 in WSW 2.0 mph 7.0 mph 83 % 0.00 in WeatherDisplay:10.37 W/m2 OVC
10:34 29.0 °F 24.5 °F 30.06 in WSW 1.0 mph 8.0 mph 83 % 0.00 in WeatherDisplay:10.37 W/m2 OVC
10:39 29.3 °F 24.8 °F 30.06 in WSW 1.0 mph 6.0 mph 83 % 0.00 in WeatherDisplay:10.37 W/m2 OVC
10:44 29.5 °F 24.7 °F 30.06 in West 1.0 mph 6.0 mph 82 % 0.00 in WeatherDisplay:10.37 W/m2 OVC
10:49 29.7 °F 25.2 °F 30.06 in Calm   4.0 mph 83 % 0.00 in WeatherDisplay:10.37 W/m2 OVC
10:54 29.9 °F 25.4 °F 30.05 in Calm   3.0 mph 83 % 0.00 in WeatherDisplay:10.37 W/m2 OVC
10:59 30.1 °F 25.6 °F 30.05 in Calm   3.0 mph 83 % 0.00 in WeatherDisplay:10.37 W/m2 OVC
11:04 30.4 °F 26.1 °F 30.05 in NW 1.0 mph 4.0 mph 84 % 0.00 in WeatherDisplay:10.37 W/m2 OVC
11:09 30.6 °F 26.0 °F 30.05 in NNW 1.0 mph 8.0 mph 83 % 0.00 in WeatherDisplay:10.37 W/m2 OVC
11:14 30.8 °F 26.3 °F 30.05 in NW 1.0 mph 5.0 mph 83 % 0.00 in WeatherDisplay:10.37 W/m2 OVC
11:19 31.1 °F 26.5 °F 30.05 in Calm   3.0 mph 83 % 0.00 in WeatherDisplay:10.37 W/m2 OVC
11:24 31.2 °F 26.6 °F 30.05 in WNW 1.0 mph 6.0 mph 83 % 0.00 in WeatherDisplay:10.37 W/m2 OVC
11:29 31.3 °F 26.7 °F 30.05 in West 2.0 mph 6.0 mph 83 % 0.00 in WeatherDisplay:10.37 W/m2 OVC
11:34 31.5 °F 26.9 °F 30.04 in WSW 1.0 mph 6.0 mph 83 % 0.00 in WeatherDisplay:10.37 W/m2 OVC
11:39 31.6 °F 27.1 °F 30.04 in WSW 1.0 mph 6.0 mph 83 % 0.00 in WeatherDisplay:10.37 W/m2 OVC
11:44 31.9 °F 27.3 °F 30.03 in Calm   6.0 mph 83 % 0.00 in WeatherDisplay:10.37 W/m2 OVC
11:49 32.2 °F 27.7 °F 30.03 in WNW 2.0 mph 7.0 mph 83 % 0.00 in WeatherDisplay:10.37 W/m2 OVC
11:54 32.5 °F 28.2 °F 30.02 in WNW 3.0 mph 12.0 mph 84 % 0.00 in WeatherDisplay:10.37 W/m2 OVC
11:59 32.8 °F 28.5 °F 30.02 in WSW 1.0 mph 12.0 mph 84 % 0.00 in WeatherDisplay:10.37 W/m2 OVC
12:04 33.1 °F 28.8 °F 30.02 in West 1.0 mph 8.0 mph 84 % 0.00 in WeatherDisplay:10.37 W/m2 OVC
12:09 33.3 °F 29.0 °F 30.01 in WNW 2.0 mph 7.0 mph 84 % 0.00 in WeatherDisplay:10.37 W/m2 OVC
12:14 33.5 °F 29.2 °F 30.01 in WSW 1.0 mph 9.0 mph 84 % 0.00 in WeatherDisplay:10.37 W/m2 OVC
12:24 34.2 °F 29.9 °F 30.01 in WSW 2.0 mph 10.0 mph 84 % 0.00 in WeatherDisplay:10.37 W/m2 OVC
Juneau County Weather
Compliments of Weather Underground - 2.25 mb